Time;durP1;ratioP1;P1;durP2;ratioP2;P2;SDS_P1;SDS_P2;PMS_P1;PMS_P2;Temp;Humidity;BMP_temperature;BMP_pressure;BME280_temperature;BME280_humidity;BME280_pressure;Samples;Min_cycle;Max_cycle;Signal;HPM_P1;HPM_P2
2022/09/02 00:00:59;;;;;;;1.83;1.35;;;17.40;78.10;;;;;;5030982;28;20060;-77
2022/09/02 00:03:26;;;;;;;3.15;1.40;;;17.40;78.10;;;;;;5030705;28;20030;-76
2022/09/02 00:05:52;;;;;;;3.20;1.38;;;17.40;78.20;;;;;;5041338;28;20036;-76
2022/09/02 00:08:17;;;;;;;2.38;1.30;;;17.40;78.20;;;;;;5033230;28;20017;-76
2022/09/02 00:10:44;;;;;;;1.38;1.13;;;17.40;79.00;;;;;;5030549;28;20024;-76
2022/09/02 00:13:13;;;;;;;3.42;1.25;;;17.40;78.20;;;;;;5030079;28;20466;-76
2022/09/02 00:15:40;;;;;;;2.13;1.40;;;17.40;78.20;;;;;;5030299;28;20164;-76
2022/09/02 00:18:12;;;;;;;3.22;1.30;;;17.30;78.10;;;;;;5030122;28;20037;-76
2022/09/02 00:20:40;;;;;;;2.30;1.25;;;17.30;78.10;;;;;;5017711;28;20061;-77
2022/09/02 00:23:07;;;;;;;1.80;1.25;;;17.30;78.20;;;;;;5030273;28;20018;-77
2022/09/02 00:25:33;;;;;;;1.75;1.35;;;17.30;78.20;;;;;;5035765;28;20064;-76
2022/09/02 00:27:59;;;;;;;4.53;1.40;;;17.20;78.10;;;;;;5042162;28;20489;-76
2022/09/02 00:30:25;;;;;;;3.38;1.52;;;17.20;78.10;;;;;;5034110;28;20096;-76
2022/09/02 00:32:51;;;;;;;2.50;1.60;;;17.20;78.30;;;;;;5034101;28;20500;-76
2022/09/02 00:35:16;;;;;;;4.53;1.30;;;17.20;78.30;;;;;;5034051;28;20116;-76
2022/09/02 00:37:42;;;;;;;1.77;1.00;;;17.20;78.10;;;;;;5033961;28;20026;-76
2022/09/02 00:40:10;;;;;;;3.15;1.38;;;17.20;78.10;;;;;;5034026;28;20100;-76
2022/09/02 00:42:36;;;;;;;4.90;1.30;;;17.10;78.10;;;;;;5047738;28;20021;-76
2022/09/02 00:45:03;;;;;;;6.25;1.38;;;17.10;78.50;;;;;;5033449;28;20383;-76
2022/09/02 00:47:32;;;;;;;5.97;1.33;;;17.10;78.10;;;;;;5033763;28;20021;-76
2022/09/02 00:49:59;;;;;;;5.32;1.30;;;17.10;78.10;;;;;;5033780;28;20061;-77
2022/09/02 00:52:39;;;;;;;1.88;1.13;;;17.10;78.10;;;;;;5033590;28;20021;-77
2022/09/02 00:55:13;;;;;;;3.10;1.10;;;17.10;78.10;;;;;;5039965;28;20013;-76
2022/09/02 00:57:47;;;;;;;2.80;1.10;;;17.10;78.90;;;;;;5040181;28;20036;-76
2022/09/02 01:00:17;;;;;;;2.05;1.20;;;17.10;78.10;;;;;;5033841;28;20359;-76
2022/09/02 01:02:48;;;;;;;2.70;1.25;;;17.10;78.10;;;;;;5033890;28;20394;-76
2022/09/02 01:05:16;;;;;;;1.70;1.17;;;17.10;78.20;;;;;;5033828;28;20104;-77
2022/09/02 01:07:43;;;;;;;3.83;1.23;;;17.00;78.20;;;;;;5033715;28;20385;-76
2022/09/02 01:10:13;;;;;;;2.00;1.13;;;17.00;78.30;;;;;;5033383;28;20049;-76
2022/09/02 01:12:40;;;;;;;3.75;1.10;;;17.00;78.40;;;;;;5031724;28;20508;-76
2022/09/02 01:15:08;;;;;;;4.20;1.20;;;17.00;78.60;;;;;;5033145;28;20417;-76
2022/09/02 01:17:35;;;;;;;3.20;1.20;;;17.00;78.70;;;;;;5033126;28;20026;-76
2022/09/02 01:20:11;;;;;;;2.40;1.20;;;16.90;78.70;;;;;;5033025;28;20013;-77
2022/09/02 01:22:38;;;;;;;3.20;1.40;;;16.90;78.90;;;;;;5033371;28;20330;-76
2022/09/02 01:25:11;;;;;;;3.50;1.10;;;16.90;79.10;;;;;;5031645;28;20033;-76
2022/09/02 01:27:37;;;;;;;3.55;1.20;;;16.80;79.20;;;;;;5032557;28;20017;-76
2022/09/02 01:30:04;;;;;;;2.58;1.23;;;16.90;79.40;;;;;;5032850;28;20013;-77
2022/09/02 01:32:30;;;;;;;4.88;1.40;;;16.90;79.50;;;;;;5033075;28;20603;-76
2022/09/02 01:34:56;;;;;;;2.60;1.27;;;16.80;79.60;;;;;;5032647;28;20485;-76
2022/09/02 01:37:22;;;;;;;1.38;1.20;;;16.80;79.70;;;;;;5032346;28;20096;-76
2022/09/02 01:39:49;;;;;;;4.07;1.25;;;16.80;79.90;;;;;;5032543;28;20087;-77
2022/09/02 01:42:15;;;;;;;2.58;1.10;;;16.80;80.20;;;;;;5032782;28;20397;-76
2022/09/02 01:44:44;;;;;;;2.15;1.10;;;16.70;80.30;;;;;;5032169;28;20053;-77
2022/09/02 01:47:15;;;;;;;4.22;1.33;;;16.70;80.40;;;;;;5046296;28;20328;-76
2022/09/02 01:49:40;;;;;;;4.25;1.20;;;16.70;80.60;;;;;;5032423;28;20040;-77
2022/09/02 01:52:07;;;;;;;2.28;1.17;;;16.70;80.80;;;;;;5032639;28;20010;-77
2022/09/02 01:54:32;;;;;;;5.80;1.20;;;16.60;80.90;;;;;;5032505;28;20503;-76
2022/09/02 01:56:58;;;;;;;3.53;1.13;;;16.60;80.80;;;;;;5032394;28;20017;-76
2022/09/02 01:59:23;;;;;;;7.38;1.50;;;16.60;80.90;;;;;;5032289;28;20017;-76
2022/09/02 02:01:49;;;;;;;2.97;1.20;;;16.60;81.00;;;;;;5032815;28;20053;-77
2022/09/02 02:04:15;;;;;;;3.75;1.40;;;16.60;80.90;;;;;;5045951;28;20454;-77
2022/09/02 02:06:44;;;;;;;5.30;1.15;;;16.60;81.20;;;;;;5032239;28;20358;-76
2022/09/02 02:09:11;;;;;;;3.60;1.50;;;16.60;81.30;;;;;;5032007;28;20572;-76
2022/09/02 02:11:37;;;;;;;6.53;1.50;;;16.50;81.40;;;;;;5031949;28;20053;-77
2022/09/02 02:14:04;;;;;;;1.83;1.08;;;16.50;81.50;;;;;;5031921;28;20104;-77
2022/09/02 02:16:30;;;;;;;4.18;1.30;;;16.50;81.50;;;;;;5031762;28;20033;-77
2022/09/02 02:18:56;;;;;;;1.98;1.23;;;16.40;81.50;;;;;;5032021;28;20109;-76
2022/09/02 02:21:22;;;;;;;4.93;1.10;;;16.40;81.60;;;;;;5031646;28;20052;-76
2022/09/02 02:23:48;;;;;;;5.45;1.27;;;16.40;81.70;;;;;;5032150;28;20033;-76
2022/09/02 02:26:13;;;;;;;2.45;1.02;;;16.40;81.70;;;;;;5031590;28;20060;-76
2022/09/02 02:28:39;;;;;;;2.50;1.20;;;16.40;81.70;;;;;;5031488;28;20137;-77
2022/09/02 02:31:05;;;;;;;3.97;1.23;;;16.30;81.70;;;;;;5031544;28;20052;-77
2022/09/02 02:33:31;;;;;;;2.33;1.48;;;16.30;81.80;;;;;;5031766;28;20513;-77
2022/09/02 02:35:57;;;;;;;3.20;1.20;;;16.30;82.00;;;;;;5031526;28;20145;-76
2022/09/02 02:38:23;;;;;;;2.22;1.30;;;16.20;82.10;;;;;;5031993;28;20394;-76
2022/09/02 02:40:52;;;;;;;3.55;1.20;;;16.20;82.20;;;;;;5031781;28;20025;-76
2022/09/02 02:43:19;;;;;;;2.88;1.30;;;16.20;82.30;;;;;;5031496;28;20026;-76
2022/09/02 02:45:45;;;;;;;1.75;1.27;;;16.20;82.50;;;;;;5030138;28;20085;-76
2022/09/02 02:48:12;;;;;;;3.08;1.20;;;16.10;82.60;;;;;;5031685;28;20068;-77
2022/09/02 02:50:38;;;;;;;4.28;1.60;;;16.10;82.70;;;;;;5030895;28;20017;-77
2022/09/02 02:53:03;;;;;;;4.47;1.73;;;16.10;82.90;;;;;;5031264;28;20076;-76
2022/09/02 02:55:29;;;;;;;3.58;1.30;;;16.10;83.00;;;;;;5031173;28;20032;-77
2022/09/02 02:57:54;;;;;;;2.50;1.30;;;16.10;83.10;;;;;;5031108;28;20029;-76
2022/09/02 03:00:27;;;;;;;2.40;1.50;;;16.10;83.40;;;;;;5030884;28;20032;-77
2022/09/02 03:03:01;;;;;;;2.97;1.23;;;16.10;83.50;;;;;;5031277;28;20025;-76
2022/09/02 03:05:27;;;;;;;3.97;1.50;;;16.00;83.60;;;;;;5031227;28;20018;-77
2022/09/02 03:07:53;;;;;;;5.75;1.50;;;16.00;83.90;;;;;;5030962;28;20486;-77
2022/09/02 03:10:20;;;;;;;2.95;1.50;;;16.00;83.90;;;;;;5030834;28;20029;-77
2022/09/02 03:12:46;;;;;;;2.60;1.40;;;16.00;84.20;;;;;;5030866;28;20401;-77
2022/09/02 03:15:15;;;;;;;4.43;1.70;;;15.90;84.20;;;;;;5030697;28;20029;-75
2022/09/02 03:17:42;;;;;;;5.18;1.48;;;15.90;84.40;;;;;;5031001;28;20113;-75
2022/09/02 03:20:08;;;;;;;3.15;1.50;;;15.90;84.50;;;;;;5030825;28;20124;-76
2022/09/02 03:22:37;;;;;;;5.65;1.67;;;15.80;84.70;;;;;;5030862;28;20049;-76
2022/09/02 03:25:04;;;;;;;2.35;1.45;;;15.80;84.80;;;;;;5021255;28;20033;-76
2022/09/02 03:27:30;;;;;;;2.42;1.33;;;15.80;85.00;;;;;;5029135;28;20029;-77
2022/09/02 03:29:55;;;;;;;3.58;1.35;;;15.80;85.10;;;;;;5031022;28;20026;-75
2022/09/02 03:32:21;;;;;;;3.67;1.67;;;15.80;85.30;;;;;;5030738;28;20044;-76
2022/09/02 03:34:47;;;;;;;6.63;1.63;;;15.70;85.40;;;;;;5030429;28;20032;-77
2022/09/02 03:37:12;;;;;;;6.22;1.77;;;15.70;85.60;;;;;;5029310;28;20018;-76
2022/09/02 03:39:38;;;;;;;2.45;1.50;;;15.70;85.80;;;;;;5030613;28;20068;-76
2022/09/02 03:42:04;;;;;;;4.03;1.50;;;15.70;86.00;;;;;;5030386;28;20045;-76
2022/09/02 03:44:29;;;;;;;2.30;1.58;;;15.60;86.20;;;;;;5030192;28;20045;-77
2022/09/02 03:46:55;;;;;;;6.75;1.40;;;15.60;86.30;;;;;;5030325;28;20022;-77
2022/09/02 03:49:21;;;;;;;4.78;1.83;;;15.60;86.50;;;;;;5030477;28;20057;-77
2022/09/02 03:51:46;;;;;;;3.00;1.50;;;15.60;86.70;;;;;;5044401;28;20104;-76
2022/09/02 03:54:12;;;;;;;4.38;1.50;;;15.60;86.80;;;;;;5030298;28;20033;-77
2022/09/02 03:56:37;;;;;;;1.73;1.30;;;15.60;86.90;;;;;;5030341;28;20120;-77
2022/09/02 03:59:04;;;;;;;2.95;1.17;;;15.60;86.90;;;;;;5030728;28;20458;-76
2022/09/02 04:01:29;;;;;;;3.17;1.42;;;15.60;87.20;;;;;;5033082;28;20100;-77
2022/09/02 04:03:55;;;;;;;4.68;1.60;;;15.60;87.30;;;;;;5034576;28;20041;-76
2022/09/02 04:06:23;;;;;;;7.18;1.63;;;15.50;87.50;;;;;;5034409;28;20472;-76
2022/09/02 04:08:49;;;;;;;2.63;1.35;;;15.50;87.60;;;;;;5034138;28;20022;-76
2022/09/02 04:11:18;;;;;;;4.10;1.55;;;15.50;87.70;;;;;;5034342;28;20059;-76
2022/09/02 04:13:45;;;;;;;4.20;1.52;;;15.50;87.70;;;;;;5034216;28;20084;-76
2022/09/02 04:16:14;;;;;;;3.88;1.80;;;15.50;87.90;;;;;;5034510;28;20356;-76
2022/09/02 04:18:40;;;;;;;2.30;1.50;;;15.50;87.90;;;;;;5034187;28;20032;-76
2022/09/02 04:21:07;;;;;;;4.60;1.35;;;15.50;88.20;;;;;;5034151;28;20018;-75
2022/09/02 04:23:33;;;;;;;2.65;1.70;;;15.50;88.30;;;;;;5033914;28;20378;-76
2022/09/02 04:26:05;;;;;;;6.80;1.83;;;15.40;88.40;;;;;;5033689;28;20064;-76
2022/09/02 04:28:31;;;;;;;2.75;1.45;;;15.50;88.50;;;;;;5034065;28;20496;-75
2022/09/02 04:30:57;;;;;;;4.78;1.60;;;15.50;88.60;;;;;;5034054;28;20018;-76
2022/09/02 04:33:23;;;;;;;3.88;1.40;;;15.40;88.80;;;;;;5034096;28;20021;-76
2022/09/02 04:35:48;;;;;;;4.20;1.67;;;15.40;88.90;;;;;;5048041;28;20037;-78
2022/09/02 04:38:15;;;;;;;6.20;1.40;;;15.40;88.90;;;;;;5034084;28;20168;-76
2022/09/02 04:40:43;;;;;;;4.93;1.45;;;15.40;89.00;;;;;;5034574;28;20075;-76
2022/09/02 04:43:09;;;;;;;3.72;1.50;;;15.50;89.20;;;;;;5034397;28;20432;-76
2022/09/02 04:45:38;;;;;;;4.43;1.52;;;15.40;89.30;;;;;;5034059;28;20046;-76
2022/09/02 04:48:03;;;;;;;3.05;1.55;;;15.40;89.40;;;;;;5033969;28;20493;-76
2022/09/02 04:50:29;;;;;;;7.05;1.60;;;15.40;89.50;;;;;;5034025;28;20095;-77
2022/09/02 04:52:54;;;;;;;2.97;1.42;;;15.40;89.70;;;;;;5033586;28;20413;-76
2022/09/02 04:55:21;;;;;;;3.67;1.50;;;15.30;89.90;;;;;;5033551;28;20089;-76
2022/09/02 04:57:46;;;;;;;7.40;1.63;;;15.40;90.00;;;;;;5033928;28;20431;-77
2022/09/02 05:00:12;;;;;;;4.65;1.80;;;15.40;90.10;;;;;;5033378;28;20076;-77
2022/09/02 05:02:39;;;;;;;4.85;1.70;;;15.40;90.20;;;;;;5033386;28;20029;-77
2022/09/02 05:05:05;;;;;;;3.65;1.40;;;15.40;90.30;;;;;;5033246;28;20155;-76
2022/09/02 05:07:31;;;;;;;2.85;1.63;;;15.30;90.20;;;;;;5033165;28;20373;-76
2022/09/02 05:09:58;;;;;;;2.40;1.55;;;15.40;90.30;;;;;;5033589;28;20030;-76
2022/09/02 05:12:26;;;;;;;3.40;1.63;;;15.30;90.40;;;;;;5032494;28;20459;-76
2022/09/02 05:14:54;;;;;;;3.38;1.60;;;15.40;90.40;;;;;;5033282;28;20030;-76
2022/09/02 05:17:20;;;;;;;2.80;1.63;;;15.40;90.50;;;;;;5033560;28;20025;-77
2022/09/02 05:19:46;;;;;;;4.38;1.65;;;15.40;90.60;;;;;;5033049;28;20029;-76
2022/09/02 05:22:12;;;;;;;2.47;1.52;;;15.40;91.00;;;;;;5039055;28;20030;-77
2022/09/02 05:24:37;;;;;;;4.72;1.70;;;15.40;90.70;;;;;;5038827;28;20029;-76
2022/09/02 05:27:03;;;;;;;5.07;1.77;;;15.30;90.80;;;;;;5047553;28;20020;-77
2022/09/02 05:29:28;;;;;;;7.93;2.08;;;15.30;90.90;;;;;;5039084;28;20022;-76
2022/09/02 05:31:54;;;;;;;4.72;2.00;;;15.30;90.90;;;;;;5044293;28;20072;-76
2022/09/02 05:34:21;;;;;;;3.33;1.83;;;15.30;91.00;;;;;;5041684;28;20025;-76
2022/09/02 05:36:46;;;;;;;3.20;1.90;;;15.30;91.00;;;;;;5041202;28;20017;-77
2022/09/02 05:39:12;;;;;;;2.55;1.67;;;15.40;91.20;;;;;;5041760;28;20092;-77
2022/09/02 05:41:38;;;;;;;5.85;1.90;;;15.40;91.30;;;;;;5032887;28;20101;-76
2022/09/02 05:44:05;;;;;;;2.55;1.70;;;15.40;91.30;;;;;;5032273;28;20440;-76
2022/09/02 05:46:31;;;;;;;5.28;1.85;;;15.40;91.40;;;;;;5032536;28;20434;-76
2022/09/02 05:49:16;;;;;;;8.35;1.88;;;15.40;91.40;;;;;;5030994;28;20030;-75
2022/09/02 05:51:47;;;;;;;6.82;1.98;;;15.40;91.40;;;;;;5032098;28;20021;-75
2022/09/02 05:54:16;;;;;;;4.70;2.13;;;15.40;91.50;;;;;;5032367;28;20096;-75
2022/09/02 05:56:43;;;;;;;5.82;1.90;;;15.40;91.60;;;;;;5032396;28;20396;-75
2022/09/02 05:59:09;;;;;;;4.03;1.77;;;15.40;91.60;;;;;;5032297;28;20056;-75
2022/09/02 06:01:35;;;;;;;3.70;1.73;;;15.40;91.70;;;;;;5032359;28;20049;-75
2022/09/02 06:04:02;;;;;;;5.90;1.90;;;15.40;91.60;;;;;;5032222;28;20104;-75
2022/09/02 06:06:29;;;;;;;4.68;2.03;;;15.50;91.70;;;;;;5032466;28;20071;-75
2022/09/02 06:08:54;;;;;;;4.80;1.83;;;15.50;91.70;;;;;;5032293;28;20249;-75
2022/09/02 06:11:20;;;;;;;3.67;2.00;;;15.50;91.70;;;;;;5035919;28;20056;-75
2022/09/02 06:13:47;;;;;;;6.70;2.40;;;15.50;91.80;;;;;;5045701;28;20017;-75
2022/09/02 06:16:16;;;;;;;5.28;2.58;;;15.50;91.80;;;;;;5045073;28;20017;-75
2022/09/02 06:18:42;;;;;;;7.65;2.53;;;15.50;91.90;;;;;;5032450;28;20033;-75
2022/09/02 06:21:07;;;;;;;5.75;1.67;;;15.50;91.90;;;;;;5033772;28;20108;-75
2022/09/02 06:23:36;;;;;;;3.95;2.00;;;15.50;92.10;;;;;;5039887;28;20144;-75
2022/09/02 06:26:02;;;;;;;5.53;1.92;;;15.60;92.20;;;;;;5031552;28;20021;-75
2022/09/02 06:28:28;;;;;;;2.72;1.85;;;15.60;92.20;;;;;;5031411;28;20036;-75
2022/09/02 06:30:53;;;;;;;8.07;2.10;;;15.60;92.30;;;;;;5030742;28;20018;-75
2022/09/02 06:33:19;;;;;;;5.63;2.35;;;15.70;92.30;;;;;;5033360;28;20021;-75
2022/09/02 06:35:45;;;;;;;3.88;2.17;;;15.80;92.40;;;;;;5040959;28;20071;-75
2022/09/02 06:38:12;;;;;;;3.22;2.00;;;15.90;92.30;;;;;;5046143;28;20097;-75
2022/09/02 06:40:49;;;;;;;6.45;2.20;;;15.90;92.20;;;;;;5050840;28;20477;-74
2022/09/02 06:43:15;;;;;;;5.55;2.20;;;16.00;92.10;;;;;;5046167;28;20112;-79
2022/09/02 06:45:41;;;;;;;6.35;2.40;;;16.10;92.50;;;;;;5035582;28;20129;-80
2022/09/02 06:48:08;;;;;;;6.07;2.50;;;16.20;92.10;;;;;;5050280;28;20100;-80
2022/09/02 06:50:37;;;;;;;4.22;2.50;;;16.30;92.10;;;;;;5042270;28;20024;-80
2022/09/02 06:53:05;;;;;;;10.35;2.20;;;16.30;92.00;;;;;;5042135;28;20358;-80
2022/09/02 06:55:33;;;;;;;10.27;2.33;;;16.40;91.90;;;;;;5040663;28;20427;-80
2022/09/02 06:57:58;;;;;;;8.32;2.20;;;16.40;91.80;;;;;;5045583;28;20060;-80
2022/09/02 07:00:24;;;;;;;6.22;2.42;;;16.40;91.80;;;;;;5047148;28;20498;-79
2022/09/02 07:05:08;;;;;;;9.70;2.83;;;16.50;91.70;;;;;;5049435;28;20381;-79
2022/09/02 07:05:35;;;;;;;10.80;2.58;;;16.50;91.80;;;;;;5044536;28;20033;-73
2022/09/02 07:08:00;;;;;;;10.90;2.47;;;16.60;91.80;;;;;;5034725;28;20501;-72
2022/09/02 07:10:26;;;;;;;9.57;2.40;;;16.60;91.90;;;;;;5048092;28;20571;-73
2022/09/02 07:12:52;;;;;;;16.75;3.25;;;16.70;92.00;;;;;;5039107;28;20030;-77
2022/09/02 07:15:17;;;;;;;10.50;2.80;;;16.80;92.00;;;;;;5030399;28;20087;-75
2022/09/02 07:17:43;;;;;;;12.18;2.90;;;16.80;91.90;;;;;;5029697;28;20025;-78
2022/09/02 07:20:09;;;;;;;4.43;2.17;;;16.90;91.80;;;;;;5032226;28;20108;-74
2022/09/02 07:22:36;;;;;;;6.07;2.45;;;17.00;91.60;;;;;;5030427;28;20014;-77
2022/09/02 07:25:02;;;;;;;9.38;2.20;;;17.10;91.60;;;;;;5035053;28;20489;-77
2022/09/02 07:27:28;;;;;;;6.28;1.95;;;17.20;91.40;;;;;;5035242;28;20029;-78
2022/09/02 07:29:55;;;;;;;6.22;2.20;;;17.30;91.20;;;;;;5035343;28;20041;-77
2022/09/02 07:32:20;;;;;;;3.38;1.95;;;17.40;91.00;;;;;;5035581;28;20013;-78
2022/09/02 07:34:46;;;;;;;7.63;2.42;;;17.40;90.80;;;;;;5021286;28;20024;-77
2022/09/02 07:37:12;;;;;;;5.30;2.30;;;17.50;90.70;;;;;;5030259;28;20051;-77
2022/09/02 07:39:38;;;;;;;5.50;2.25;;;17.60;90.50;;;;;;5029262;28;20381;-78
2022/09/02 07:42:03;;;;;;;4.82;2.42;;;17.70;90.30;;;;;;5030829;28;20013;-78
2022/09/02 07:44:31;;;;;;;6.63;2.33;;;17.80;90.10;;;;;;5030454;28;20408;-78
2022/09/02 07:46:57;;;;;;;6.95;2.85;;;17.90;90.10;;;;;;5030894;28;20072;-74
2022/09/02 07:49:23;;;;;;;6.22;2.80;;;18.00;90.10;;;;;;5030719;28;20118;-75
2022/09/02 07:51:49;;;;;;;6.20;2.90;;;18.10;89.90;;;;;;5031428;28;20033;-76
2022/09/02 07:54:18;;;;;;;6.00;3.00;;;18.30;89.60;;;;;;5032540;28;20044;-75
2022/09/02 07:56:44;;;;;;;6.22;2.78;;;18.40;89.10;;;;;;5036953;28;20025;-74
2022/09/02 07:59:10;;;;;;;6.90;2.80;;;18.50;88.70;;;;;;5040493;28;20013;-75
2022/09/02 08:01:36;;;;;;;11.93;3.20;;;18.50;88.40;;;;;;5044407;28;20074;-75
2022/09/02 08:04:02;;;;;;;6.30;2.90;;;18.70;88.30;;;;;;5046931;28;20029;-74
2022/09/02 08:06:30;;;;;;;9.07;3.03;;;18.70;88.30;;;;;;5039834;28;20033;-74
2022/09/02 08:08:55;;;;;;;5.03;2.88;;;18.80;88.90;;;;;;5041269;28;20525;-74
2022/09/02 08:11:22;;;;;;;5.35;2.75;;;18.90;88.10;;;;;;5043330;28;20060;-74
2022/09/02 08:13:49;;;;;;;8.77;3.25;;;19.00;88.20;;;;;;5032851;28;20071;-75
2022/09/02 08:16:14;;;;;;;5.47;2.75;;;19.10;87.90;;;;;;5031179;28;20036;-74
2022/09/02 08:18:41;;;;;;;6.18;2.92;;;19.20;87.70;;;;;;5045568;28;20100;-74
2022/09/02 08:21:06;;;;;;;5.60;2.90;;;19.40;87.60;;;;;;5043660;28;20428;-75
2022/09/02 08:23:32;;;;;;;8.93;2.97;;;19.40;87.50;;;;;;5041966;28;20136;-74
2022/09/02 08:25:59;;;;;;;8.15;3.15;;;19.50;87.10;;;;;;5039745;28;20037;-74
2022/09/02 08:28:26;;;;;;;6.05;3.20;;;19.60;87.00;;;;;;5040263;28;20111;-74
2022/09/02 08:30:53;;;;;;;3.97;3.03;;;19.70;86.50;;;;;;5039472;28;20049;-73
2022/09/02 08:33:19;;;;;;;6.30;2.80;;;19.80;86.50;;;;;;5045618;28;20040;-74
2022/09/02 08:35:45;;;;;;;9.10;3.40;;;19.90;86.10;;;;;;5042664;28;20481;-73
2022/09/02 08:38:10;;;;;;;7.30;3.22;;;20.00;85.40;;;;;;5039732;28;20481;-74
2022/09/02 08:40:39;;;;;;;7.30;2.90;;;20.10;85.10;;;;;;5046165;28;20033;-74
2022/09/02 08:43:28;;;;;;;14.88;3.70;;;20.20;84.60;;;;;;5044355;28;20377;-73
2022/09/02 08:45:58;;;;;;;7.82;3.47;;;20.30;84.30;;;;;;5041265;28;20441;-73
2022/09/02 08:48:35;;;;;;;7.15;3.30;;;20.40;84.00;;;;;;5047531;28;20119;-73
2022/09/02 08:51:06;;;;;;;4.65;3.40;;;20.40;83.60;;;;;;5034181;28;20030;-73
2022/09/02 08:53:46;;;;;;;9.80;3.45;;;20.50;83.40;;;;;;5033816;28;20052;-73
2022/09/02 08:56:15;;;;;;;8.77;3.88;;;20.60;83.00;;;;;;5033531;28;20505;-76
2022/09/02 08:58:47;;;;;;;6.60;3.80;;;20.70;82.70;;;;;;5040715;28;20025;-75
2022/09/02 09:01:40;;;;;;;8.80;3.55;;;20.80;82.40;;;;;;5043923;28;20498;-75
2022/09/02 09:04:11;;;;;;;10.20;3.60;;;20.80;82.20;;;;;;5045746;28;20029;-74
2022/09/02 09:07:14;;;;;;;8.02;4.03;;;20.90;82.20;;;;;;5050875;28;20473;-76
2022/09/02 09:10:01;;;;;;;6.28;3.13;;;21.00;81.90;;;;;;5051752;28;20017;-74
2022/09/02 09:12:39;;;;;;;9.50;3.60;;;21.20;82.90;;;;;;5052110;28;20053;-76
2022/09/02 09:15:42;;;;;;;12.73;3.55;;;21.40;81.70;;;;;;5050932;28;20031;-76
2022/09/02 09:18:12;;;;;;;43.30;5.20;;;21.50;81.10;;;;;;5051525;28;20489;-76
2022/09/02 09:20:40;;;;;;;12.20;3.33;;;21.60;80.40;;;;;;5046973;28;20107;-76
2022/09/02 09:23:32;;;;;;;12.30;3.33;;;21.70;80.10;;;;;;5045089;28;20275;-76
2022/09/02 09:26:12;;;;;;;17.33;4.53;;;21.90;79.60;;;;;;5042099;28;20125;-76
2022/09/02 09:28:46;;;;;;;18.88;4.10;;;22.10;78.90;;;;;;5051043;28;20032;-75
2022/09/02 09:31:21;;;;;;;8.90;3.50;;;22.10;78.50;;;;;;5043852;28;20021;-75
2022/09/02 09:34:00;;;;;;;41.43;5.40;;;22.20;77.60;;;;;;5032117;28;20507;-77
2022/09/02 09:36:41;;;;;;;12.30;3.53;;;22.20;77.60;;;;;;5037788;28;20264;-75
2022/09/02 09:39:31;;;;;;;11.63;3.80;;;22.30;77.70;;;;;;5034066;28;20555;-75
2022/09/02 09:42:02;;;;;;;8.98;3.80;;;22.30;76.70;;;;;;5031844;28;20037;-75
2022/09/02 09:44:43;;;;;;;9.55;3.75;;;22.30;77.10;;;;;;5032197;28;20485;-73
2022/09/02 09:47:21;;;;;;;9.63;3.72;;;22.40;77.50;;;;;;5032554;28;20245;-72
2022/09/02 09:49:52;;;;;;;6.88;3.30;;;22.70;78.30;;;;;;5038018;28;20025;-72
2022/09/02 09:52:26;;;;;;;6.75;3.53;;;22.90;77.00;;;;;;5048720;28;20103;-74
2022/09/02 09:55:10;;;;;;;6.10;3.22;;;23.00;76.40;;;;;;5042943;28;20077;-76
2022/09/02 09:57:38;;;;;;;9.52;3.70;;;23.20;75.90;;;;;;5051484;28;20053;-75
2022/09/02 10:00:20;;;;;;;5.97;3.78;;;23.20;75.50;;;;;;5038015;28;20030;-76
2022/09/02 10:02:53;;;;;;;10.70;4.38;;;23.30;75.30;;;;;;5038836;28;20516;-76
2022/09/02 10:05:34;;;;;;;7.72;4.25;;;23.30;75.40;;;;;;5038821;28;20045;-76
2022/09/02 10:08:17;;;;;;;9.77;4.15;;;23.30;75.50;;;;;;5038961;28;20437;-76
2022/09/02 10:11:00;;;;;;;8.45;3.78;;;23.30;75.70;;;;;;5039555;28;20030;-75
2022/09/02 10:13:30;;;;;;;6.03;3.97;;;23.50;75.50;;;;;;5028007;28;20022;-76
2022/09/02 10:16:04;;;;;;;8.85;4.22;;;23.50;75.10;;;;;;5039991;28;20474;-77
2022/09/02 10:18:45;;;;;;;11.15;3.70;;;23.60;74.60;;;;;;5039496;28;20092;-75
2022/09/02 10:21:35;;;;;;;7.85;3.38;;;23.70;74.60;;;;;;5038986;28;20034;-75
2022/09/02 10:24:34;;;;;;;10.55;4.28;;;24.00;74.10;;;;;;5039378;28;20075;-75
2022/09/02 10:27:05;;;;;;;5.65;3.75;;;24.20;72.50;;;;;;5040196;28;20028;-76
2022/09/02 10:29:42;;;;;;;9.32;3.90;;;24.40;72.10;;;;;;5041199;28;20021;-75
2022/09/02 10:32:40;;;;;;;8.85;4.43;;;24.50;71.50;;;;;;5041725;28;20021;-75
2022/09/02 10:35:10;;;;;;;9.32;4.82;;;24.70;70.90;;;;;;5041454;28;20060;-75
2022/09/02 10:38:06;;;;;;;7.85;4.40;;;24.90;70.60;;;;;;5041597;28;20166;-75
2022/09/02 10:41:13;;;;;;;10.48;4.15;;;25.20;70.20;;;;;;5023981;28;20084;-74
2022/09/02 10:44:06;;;;;;;8.57;5.35;;;25.30;69.70;;;;;;5034625;28;20531;-74
2022/09/02 10:46:57;;;;;;;9.75;4.63;;;25.50;68.80;;;;;;5034600;28;20040;-74
2022/09/02 10:49:29;;;;;;;8.27;4.00;;;25.50;68.30;;;;;;5036471;28;20465;-75
2022/09/02 10:52:32;;;;;;;7.50;4.40;;;25.60;68.10;;;;;;5040879;28;20071;-75
2022/09/02 10:55:30;;;;;;;6.05;4.30;;;25.60;67.60;;;;;;5042270;28;20052;-76
2022/09/02 10:58:16;;;;;;;9.23;4.15;;;25.70;67.00;;;;;;5041814;28;20141;-76
2022/09/02 11:00:49;;;;;;;6.00;3.80;;;25.80;66.00;;;;;;5043231;28;20024;-76
2022/09/02 11:03:26;;;;;;;6.30;4.30;;;25.90;65.90;;;;;;5043756;28;20035;-76
2022/09/02 11:05:55;;;;;;;5.93;3.83;;;26.00;65.20;;;;;;5042968;28;20346;-76
2022/09/02 11:08:50;;;;;;;8.48;4.40;;;26.10;64.90;;;;;;5043890;28;20021;-76
2022/09/02 11:11:36;;;;;;;7.13;4.00;;;26.20;64.40;;;;;;5031967;28;20025;-75
2022/09/02 11:14:16;;;;;;;7.28;3.67;;;26.30;64.00;;;;;;5043078;28;20040;-76
2022/09/02 11:16:50;;;;;;;9.93;3.30;;;26.40;63.10;;;;;;5044170;28;20128;-76
2022/09/02 11:19:24;;;;;;;4.22;3.13;;;26.40;62.90;;;;;;5042896;28;20087;-76
2022/09/02 11:22:04;;;;;;;7.40;3.53;;;26.60;62.80;;;;;;5042730;28;20057;-76
2022/09/02 11:24:43;;;;;;;10.52;3.58;;;26.70;62.30;;;;;;5042718;28;20575;-75
2022/09/02 11:27:51;;;;;;;8.15;3.47;;;26.80;62.00;;;;;;5042304;28;20038;-76
2022/09/02 11:30:23;;;;;;;10.88;4.00;;;26.90;61.80;;;;;;5032782;28;20505;-75
2022/09/02 11:33:09;;;;;;;6.15;3.25;;;26.90;61.20;;;;;;5042751;28;20068;-76
2022/09/02 11:35:37;;;;;;;6.38;3.13;;;27.00;60.40;;;;;;5042128;28;20033;-76
2022/09/02 11:38:33;;;;;;;6.80;3.65;;;27.00;60.00;;;;;;5041951;28;20028;-75
2022/09/02 11:41:39;;;;;;;4.85;3.00;;;27.00;59.70;;;;;;5041902;28;20089;-76
2022/09/02 11:44:33;;;;;;;5.05;3.20;;;27.10;60.00;;;;;;5041102;28;20093;-76
2022/09/02 11:47:41;;;;;;;8.18;4.18;;;27.20;59.60;;;;;;5040438;28;20060;-76
2022/09/02 11:50:15;;;;;;;5.93;3.25;;;27.20;58.90;;;;;;5040817;28;20037;-75
2022/09/02 11:53:18;;;;;;;7.20;3.60;;;27.30;59.10;;;;;;5040817;28;20027;-75
2022/09/02 11:55:50;;;;;;;4.75;3.80;;;27.30;59.20;;;;;;5027971;28;20037;-76
2022/09/02 11:58:39;;;;;;;8.57;3.70;;;27.40;59.00;;;;;;5042298;28;20029;-76
2022/09/02 12:01:14;;;;;;;5.13;3.30;;;27.50;58.90;;;;;;5032587;28;20104;-76
2022/09/02 12:03:45;;;;;;;10.38;4.05;;;27.50;58.80;;;;;;5042899;28;20047;-75
2022/09/02 12:06:14;;;;;;;7.70;4.20;;;27.50;58.40;;;;;;5042178;28;20026;-76
2022/09/02 12:08:40;;;;;;;6.43;3.30;;;27.50;58.90;;;;;;5044275;28;20455;-76
2022/09/02 12:11:06;;;;;;;6.15;3.67;;;27.50;58.30;;;;;;5043851;28;20013;-75
2022/09/02 12:13:44;;;;;;;8.25;3.50;;;27.60;58.20;;;;;;5043111;28;20026;-76
2022/09/02 12:16:15;;;;;;;5.38;3.60;;;27.70;58.10;;;;;;5043573;28;20026;-76
2022/09/02 12:18:52;;;;;;;6.53;2.97;;;27.80;57.80;;;;;;5042363;28;20029;-75
2022/09/02 12:21:19;;;;;;;6.35;3.13;;;27.90;56.50;;;;;;5042460;28;20084;-76
2022/09/02 12:23:51;;;;;;;6.20;3.00;;;27.80;56.30;;;;;;5047117;28;20552;-76
2022/09/02 12:26:19;;;;;;;4.47;2.60;;;27.80;56.40;;;;;;5046570;28;20041;-76
2022/09/02 12:28:46;;;;;;;5.53;2.90;;;27.80;56.00;;;;;;5047359;28;20033;-76
2022/09/02 12:31:41;;;;;;;6.60;3.08;;;27.90;56.00;;;;;;5046552;28;20028;-76
2022/09/02 12:34:19;;;;;;;7.13;3.20;;;27.90;55.70;;;;;;5038993;28;20037;-74
2022/09/02 12:36:56;;;;;;;5.03;2.53;;;28.00;54.60;;;;;;5045557;28;20385;-75
2022/09/02 12:39:24;;;;;;;6.30;2.80;;;28.00;55.10;;;;;;5044853;28;20025;-74
2022/09/02 12:42:22;;;;;;;7.30;2.60;;;28.10;54.90;;;;;;5043540;28;20014;-75
2022/09/02 12:45:13;;;;;;;3.90;2.20;;;28.10;54.00;;;;;;5042892;28;20485;-75
2022/09/02 12:47:45;;;;;;;3.78;2.53;;;28.10;53.50;;;;;;5062285;28;20026;-75
2022/09/02 12:50:43;;;;;;;9.07;2.47;;;28.20;53.50;;;;;;5047317;28;20373;-75
2022/09/02 12:53:34;;;;;;;6.72;2.10;;;28.30;52.60;;;;;;5045446;28;20025;-75
2022/09/02 12:56:05;;;;;;;5.10;2.65;;;28.40;51.00;;;;;;5047427;28;20108;-74
2022/09/02 12:58:40;;;;;;;6.95;2.13;;;28.40;50.30;;;;;;5049050;28;20033;-75
2022/09/02 13:01:10;;;;;;;;;;;28.40;50.70;;;;;;5050081;28;20128;-75
2022/09/02 13:04:07;;;;;;;6.20;2.28;;;28.40;50.90;;;;;;5048672;28;19908;-74
2022/09/02 13:07:01;;;;;;;4.80;2.10;;;28.40;50.00;;;;;;5057442;28;20472;-75